createdAt,value
2023-04-18T00:00:24.829Z,0.00
2023-04-18T00:01:24.722Z,0.00
2023-04-18T00:02:25.655Z,0.00
2023-04-18T00:03:24.883Z,0.00
2023-04-18T00:04:25.029Z,0.00
2023-04-18T00:05:24.828Z,0.00
2023-04-18T00:06:24.643Z,0.00
2023-04-18T00:07:24.641Z,0.00
2023-04-18T00:08:24.647Z,0.00
2023-04-18T00:09:24.715Z,0.00
2023-04-18T00:10:24.650Z,0.00
2023-04-18T00:11:24.581Z,0.00
2023-04-18T00:12:25.502Z,0.00
2023-04-18T00:13:24.574Z,0.00
2023-04-18T00:14:24.618Z,0.00
2023-04-18T00:15:24.519Z,0.00
2023-04-18T00:16:24.743Z,0.00
2023-04-18T00:17:24.498Z,0.00
2023-04-18T00:18:24.510Z,0.00
2023-04-18T00:19:24.481Z,0.00
2023-04-18T00:20:24.528Z,0.00
2023-04-18T00:21:24.437Z,0.00
2023-04-18T00:22:24.439Z,0.00
2023-04-18T00:23:24.431Z,0.00
2023-04-18T00:24:24.496Z,0.00
2023-04-18T00:25:24.482Z,0.00
2023-04-18T00:26:24.353Z,0.00
2023-04-18T00:27:24.483Z,0.00
2023-04-18T00:28:24.343Z,0.00
2023-04-18T00:29:24.397Z,0.00
2023-04-18T00:30:24.447Z,0.00
2023-04-18T00:31:24.494Z,0.00
2023-04-18T00:32:24.293Z,0.00
2023-04-18T00:33:24.343Z,0.00
2023-04-18T00:34:24.248Z,0.00
2023-04-18T00:35:24.396Z,0.00
2023-04-18T00:36:24.265Z,0.00
2023-04-18T00:37:24.354Z,0.00
2023-04-18T00:38:24.211Z,0.00
2023-04-18T00:39:24.308Z,0.00
2023-04-18T00:40:24.164Z,0.00
2023-04-18T00:41:24.277Z,0.00
2023-04-18T00:42:24.166Z,0.00
2023-04-18T00:43:24.395Z,0.00
2023-04-18T00:44:24.116Z,0.00
2023-04-18T00:45:24.272Z,0.00
2023-04-18T00:46:24.122Z,0.00
2023-04-18T00:47:24.243Z,0.00
2023-04-18T00:48:24.084Z,0.00
2023-04-18T00:49:24.142Z,0.00
2023-04-18T00:50:24.056Z,0.00
2023-04-18T00:51:24.212Z,0.00
2023-04-18T00:52:24.042Z,0.00
2023-04-18T00:53:24.164Z,0.00
2023-04-18T00:54:23.999Z,0.00
2023-04-18T00:55:24.089Z,0.00
2023-04-18T00:56:24.070Z,0.00
2023-04-18T00:57:24.023Z,0.00
2023-04-18T00:58:24.230Z,0.00
2023-04-18T00:59:23.947Z,0.00
2023-04-18T01:00:24.004Z,0.00
2023-04-18T01:01:23.995Z,0.00
2023-04-18T01:02:24.224Z,0.00
2023-04-18T01:03:24.051Z,0.00
2023-04-18T01:04:24.179Z,0.00
2023-04-18T01:05:23.899Z,0.00
2023-04-18T01:06:23.953Z,0.00
2023-04-18T01:07:23.928Z,0.00
2023-04-18T01:08:23.975Z,0.00
2023-04-18T01:09:23.824Z,0.00
2023-04-18T01:10:23.947Z,0.00
2023-04-18T01:11:23.818Z,0.00
2023-04-18T01:12:24.567Z,0.00
2023-04-18T01:13:23.805Z,0.00
2023-04-18T01:14:23.850Z,0.00
2023-04-18T01:15:23.759Z,0.00
2023-04-18T01:16:24.058Z,0.00
2023-04-18T01:17:23.867Z,0.00
2023-04-18T01:18:23.734Z,0.00
2023-04-18T01:19:23.825Z,0.00
2023-04-18T01:20:23.660Z,0.00
2023-04-18T01:21:23.781Z,0.00
2023-04-18T01:22:23.743Z,0.00
2023-04-18T01:23:24.065Z,0.00
2023-04-18T01:24:23.789Z,0.00
2023-04-18T01:25:23.650Z,0.00
2023-04-18T01:26:23.765Z,0.00
2023-04-18T01:27:23.782Z,0.00
2023-04-18T01:28:23.598Z,0.00
2023-04-18T01:29:23.796Z,0.00
2023-04-18T01:30:23.580Z,0.00
2023-04-18T01:31:24.824Z,0.00
2023-04-18T01:32:23.555Z,0.00
2023-04-18T01:33:23.764Z,0.00
2023-04-18T01:34:23.492Z,0.00
2023-04-18T01:35:23.634Z,0.00
2023-04-18T01:36:23.471Z,0.00
2023-04-18T01:37:23.645Z,0.00
2023-04-18T01:38:23.479Z,0.00
2023-04-18T01:39:24.572Z,0.00
2023-04-18T01:40:23.476Z,0.00
2023-04-18T01:41:23.476Z,0.00
2023-04-18T01:42:23.387Z,0.00
2023-04-18T01:43:23.481Z,0.00
2023-04-18T01:44:23.422Z,0.00
2023-04-18T01:45:23.545Z,0.00
2023-04-18T01:46:23.438Z,0.00
2023-04-18T01:47:23.434Z,0.00
2023-04-18T01:48:23.306Z,0.00
2023-04-18T01:49:23.471Z,0.00
2023-04-18T01:50:23.312Z,0.00
2023-04-18T01:51:23.399Z,0.00
2023-04-18T01:52:23.299Z,0.00
2023-04-18T01:53:23.328Z,0.00
2023-04-18T01:54:23.247Z,0.00
2023-04-18T01:55:23.369Z,0.00
2023-04-18T01:56:23.981Z,0.00
2023-04-18T01:57:23.315Z,0.00
2023-04-18T01:58:23.281Z,0.00
2023-04-18T01:59:23.201Z,0.00
2023-04-18T02:00:23.299Z,0.00
2023-04-18T02:01:23.284Z,0.00
2023-04-18T02:02:23.474Z,0.00
2023-04-18T02:03:23.281Z,0.00
2023-04-18T02:04:23.305Z,0.00
2023-04-18T02:05:23.135Z,0.00
2023-04-18T02:06:23.261Z,0.00
2023-04-18T02:07:23.136Z,0.00
2023-04-18T02:08:23.139Z,0.00
2023-04-18T02:09:23.087Z,0.00
2023-04-18T02:10:23.170Z,0.00
2023-04-18T02:11:23.844Z,0.00
2023-04-18T02:12:23.108Z,0.00
2023-04-18T02:13:23.060Z,0.00
2023-04-18T02:14:23.096Z,0.00
2023-04-18T02:15:23.001Z,0.00
2023-04-18T02:16:23.225Z,0.00
2023-04-18T02:17:23.074Z,0.00
2023-04-18T02:18:23.105Z,0.00
2023-04-18T02:19:23.024Z,0.00
2023-04-18T02:20:22.923Z,0.00
2023-04-18T02:21:29.107Z,0.00
2023-04-18T02:22:23.022Z,0.00
2023-04-18T02:23:23.536Z,0.00
2023-04-18T02:24:23.087Z,0.00
2023-04-18T02:25:22.879Z,0.00
2023-04-18T02:26:23.076Z,0.00
2023-04-18T02:27:22.852Z,0.00
2023-04-18T02:28:22.857Z,0.00
2023-04-18T02:29:22.854Z,0.00
2023-04-18T02:30:22.924Z,0.00
2023-04-18T02:31:22.837Z,0.00
2023-04-18T02:32:22.940Z,0.00
2023-04-18T02:33:22.775Z,0.00
2023-04-18T02:34:22.958Z,0.00
2023-04-18T02:35:22.752Z,0.00
2023-04-18T02:36:22.809Z,0.00
2023-04-18T02:37:22.793Z,0.00
2023-04-18T02:38:22.820Z,0.00
2023-04-18T02:39:22.714Z,0.00
2023-04-18T02:40:22.776Z,0.00
2023-04-18T02:41:22.674Z,0.00
2023-04-18T02:42:22.760Z,0.00
2023-04-18T02:43:22.650Z,0.00
2023-04-18T02:44:22.658Z,0.00
2023-04-18T02:45:22.654Z,0.00
2023-04-18T02:46:22.914Z,0.00
2023-04-18T02:47:22.592Z,0.00
2023-04-18T02:48:22.734Z,0.00
2023-04-18T02:49:22.611Z,0.00
2023-04-18T02:50:22.660Z,0.00
2023-04-18T02:51:22.576Z,0.00
2023-04-18T02:52:22.662Z,0.00
2023-04-18T02:53:22.524Z,0.00
2023-04-18T02:54:22.642Z,0.00
2023-04-18T02:55:22.698Z,0.00
2023-04-18T02:56:22.466Z,0.00
2023-04-18T02:57:22.725Z,0.00
2023-04-18T02:58:22.467Z,0.00
2023-04-18T02:59:22.495Z,0.00
2023-04-18T03:00:22.440Z,0.00
2023-04-18T03:01:22.530Z,0.00
2023-04-18T03:02:22.498Z,0.00
2023-04-18T03:03:22.628Z,0.00
2023-04-18T03:04:22.386Z,0.00
2023-04-18T03:05:22.527Z,0.00
2023-04-18T03:06:22.399Z,0.00
2023-04-18T03:07:22.451Z,0.00
2023-04-18T03:08:22.346Z,0.00
2023-04-18T03:09:22.343Z,0.00
2023-04-18T03:10:22.319Z,0.00
2023-04-18T03:11:22.358Z,0.00
2023-04-18T03:12:22.312Z,0.00
2023-04-18T03:13:22.460Z,0.00
2023-04-18T03:14:22.286Z,0.00
2023-04-18T03:15:22.301Z,0.00
2023-04-18T03:16:22.353Z,0.00
2023-04-18T03:17:22.365Z,0.00
2023-04-18T03:18:22.224Z,0.00
2023-04-18T03:19:22.291Z,0.00
2023-04-18T03:20:22.239Z,0.00
2023-04-18T03:21:22.206Z,0.00
2023-04-18T03:22:22.160Z,0.00
2023-04-18T03:23:22.339Z,0.00
2023-04-18T03:24:22.177Z,0.00
2023-04-18T03:25:22.152Z,0.00
2023-04-18T03:26:22.177Z,0.00
2023-04-18T03:27:22.089Z,0.00
2023-04-18T03:28:22.169Z,0.00
2023-04-18T03:29:22.084Z,0.00
2023-04-18T03:30:22.174Z,0.00
2023-04-18T03:31:22.063Z,0.00
2023-04-18T03:32:22.150Z,0.00
2023-04-18T03:33:22.035Z,0.00
2023-04-18T03:34:22.167Z,0.00
2023-04-18T03:35:21.962Z,0.00
2023-04-18T03:36:22.118Z,0.00
2023-04-18T03:37:21.947Z,0.00
2023-04-18T03:38:22.110Z,0.00
2023-04-18T03:39:21.922Z,0.00
2023-04-18T03:40:22.003Z,0.00
2023-04-18T03:41:21.898Z,0.00
2023-04-18T03:42:21.957Z,0.00
2023-04-18T03:43:21.868Z,0.00
2023-04-18T03:44:21.988Z,0.00
2023-04-18T03:45:21.858Z,0.00
2023-04-18T03:46:22.205Z,0.00
2023-04-18T03:47:21.862Z,0.00
2023-04-18T03:48:21.903Z,0.00
2023-04-18T03:49:21.812Z,0.00
2023-04-18T03:50:22.033Z,0.00
2023-04-18T03:51:21.772Z,0.00
2023-04-18T03:52:21.881Z,0.00
2023-04-18T03:53:21.736Z,0.00
2023-04-18T03:54:21.833Z,0.00
2023-04-18T03:55:21.723Z,0.00
2023-04-18T03:56:21.809Z,0.00
2023-04-18T03:57:21.749Z,0.00
2023-04-18T03:58:23.169Z,0.00
2023-04-18T03:59:21.759Z,0.00
2023-04-18T04:00:21.711Z,0.00
2023-04-18T04:01:21.875Z,0.00
2023-04-18T04:02:21.823Z,0.00
2023-04-18T04:03:21.963Z,0.00
2023-04-18T04:04:21.725Z,0.00
2023-04-18T04:05:21.815Z,0.00
2023-04-18T04:06:21.610Z,0.00
2023-04-18T04:07:21.649Z,0.00
2023-04-18T04:08:21.589Z,0.00
2023-04-18T04:09:21.639Z,0.00
2023-04-18T04:10:21.934Z,0.00
2023-04-18T04:11:21.639Z,0.00
2023-04-18T04:12:21.579Z,0.00
2023-04-18T04:13:21.651Z,4.00
2023-04-18T04:14:21.521Z,4.00
2023-04-18T04:15:21.574Z,0.00
2023-04-18T04:16:21.527Z,0.00
2023-04-18T04:17:21.528Z,0.00
2023-04-18T04:18:21.505Z,0.00
2023-04-18T04:19:21.444Z,4.00
2023-04-18T04:20:21.518Z,4.00
2023-04-18T04:21:21.398Z,4.00
2023-04-18T04:22:21.653Z,4.00
2023-04-18T04:23:21.456Z,0.00
2023-04-18T04:24:21.400Z,4.00
2023-04-18T04:25:21.434Z,4.00
2023-04-18T04:26:21.370Z,4.00
2023-04-18T04:27:21.474Z,8.00
2023-04-18T04:28:21.478Z,8.00
2023-04-18T04:29:21.317Z,8.00
2023-04-18T04:30:21.487Z,8.00
2023-04-18T04:31:21.263Z,12.00
2023-04-18T04:32:21.560Z,8.00
2023-04-18T04:33:21.277Z,8.00
2023-04-18T04:34:21.417Z,12.00
2023-04-18T04:35:21.246Z,12.00
2023-04-18T04:36:21.342Z,12.00
2023-04-18T04:37:21.220Z,12.00
2023-04-18T04:38:21.228Z,12.00
2023-04-18T04:39:21.216Z,12.00
2023-04-18T04:40:22.101Z,16.00
2023-04-18T04:41:21.190Z,16.00
2023-04-18T04:42:21.268Z,16.00
2023-04-18T04:43:21.130Z,16.00
2023-04-18T04:44:21.355Z,20.00
2023-04-18T04:45:21.103Z,20.00
2023-04-18T04:46:21.418Z,20.00
2023-04-18T04:47:21.088Z,20.00
2023-04-18T04:48:21.320Z,20.00
2023-04-18T04:49:21.131Z,20.00
2023-04-18T04:50:21.058Z,28.00
2023-04-18T04:51:21.099Z,28.00
2023-04-18T04:52:21.051Z,24.00
2023-04-18T04:53:21.132Z,28.00
2023-04-18T04:54:21.139Z,28.00
2023-04-18T04:55:20.982Z,28.00
2023-04-18T04:56:21.157Z,32.00
2023-04-18T04:57:20.969Z,36.00
2023-04-18T04:58:21.121Z,36.00
2023-04-18T04:59:20.956Z,44.00
2023-04-18T05:00:21.101Z,48.00
2023-04-18T05:01:20.932Z,52.00
2023-04-18T05:02:21.095Z,52.00
2023-04-18T05:03:21.138Z,56.00
2023-04-18T05:04:21.206Z,68.00
2023-04-18T05:05:20.877Z,76.00
2023-04-18T05:06:21.071Z,72.00
2023-04-18T05:07:20.820Z,76.00
2023-04-18T05:08:22.037Z,80.00
2023-04-18T05:09:20.807Z,80.00
2023-04-18T05:10:20.949Z,80.00
2023-04-18T05:11:20.797Z,84.00
2023-04-18T05:12:20.961Z,88.00
2023-04-18T05:13:20.770Z,108.00
2023-04-18T05:14:20.875Z,128.00
2023-04-18T05:15:20.928Z,148.00
2023-04-18T05:16:20.765Z,144.00
2023-04-18T05:17:20.787Z,124.00
2023-04-18T05:18:20.706Z,112.00
2023-04-18T05:19:20.790Z,104.00
2023-04-18T05:20:20.765Z,112.00
2023-04-18T05:21:20.697Z,124.00
2023-04-18T05:22:20.729Z,136.00
2023-04-18T05:23:20.622Z,132.00
2023-04-18T05:24:20.742Z,132.00
2023-04-18T05:25:20.586Z,132.00
2023-04-18T05:26:20.755Z,132.00
2023-04-18T05:27:20.591Z,132.00
2023-04-18T05:28:20.660Z,132.00
2023-04-18T05:29:20.536Z,140.00
2023-04-18T05:30:20.782Z,148.00
2023-04-18T05:31:20.555Z,164.00
2023-04-18T05:32:20.672Z,168.00
2023-04-18T05:33:20.475Z,172.00
2023-04-18T05:34:20.609Z,172.00
2023-04-18T05:35:20.481Z,168.00
2023-04-18T05:36:20.518Z,176.00
2023-04-18T05:37:20.456Z,204.00
2023-04-18T05:38:20.527Z,232.00
2023-04-18T05:39:20.418Z,224.00
2023-04-18T05:40:20.541Z,232.00
2023-04-18T05:41:20.531Z,228.00
2023-04-18T05:42:20.409Z,232.00
2023-04-18T05:43:20.581Z,252.00
2023-04-18T05:44:20.559Z,268.00
2023-04-18T05:45:20.491Z,320.00
2023-04-18T05:46:20.576Z,300.00
2023-04-18T05:47:20.376Z,272.00
2023-04-18T05:48:20.448Z,268.00
2023-04-18T05:49:20.304Z,232.00
2023-04-18T05:50:21.086Z,216.00
2023-04-18T05:51:20.401Z,204.00
2023-04-18T05:52:20.313Z,228.00
2023-04-18T05:53:20.394Z,260.00
2023-04-18T05:54:20.268Z,296.00
2023-04-18T05:55:20.368Z,268.00
2023-04-18T05:56:20.246Z,260.00
2023-04-18T05:57:20.436Z,288.00
2023-04-18T05:58:20.256Z,312.00
2023-04-18T05:59:20.235Z,356.00
2023-04-18T06:00:21.383Z,396.00
2023-04-18T06:01:21.112Z,364.00
2023-04-18T06:02:20.235Z,360.00
2023-04-18T06:03:20.605Z,356.00
2023-04-18T06:04:20.807Z,336.00
2023-04-18T06:05:20.377Z,340.00
2023-04-18T06:06:20.102Z,340.00
2023-04-18T06:07:20.086Z,316.00
2023-04-18T06:08:20.099Z,272.00
2023-04-18T06:09:20.096Z,284.00
2023-04-18T06:10:20.057Z,264.00
2023-04-18T06:11:20.171Z,244.00
2023-04-18T06:12:20.039Z,244.00
2023-04-18T06:13:20.018Z,252.00
2023-04-18T06:14:20.549Z,248.00
2023-04-18T06:15:20.044Z,252.00
2023-04-18T06:16:20.059Z,276.00
2023-04-18T06:17:20.053Z,284.00
2023-04-18T06:18:20.000Z,300.00
2023-04-18T06:19:19.943Z,304.00
2023-04-18T06:20:21.374Z,312.00
2023-04-18T06:21:19.936Z,312.00
2023-04-18T06:22:19.945Z,332.00
2023-04-18T06:23:19.865Z,372.00
2023-04-18T06:24:19.988Z,404.00
2023-04-18T06:25:19.881Z,400.00
2023-04-18T06:26:19.919Z,388.00
2023-04-18T06:27:30.480Z,404.00
2023-04-18T06:28:19.855Z,412.00
2023-04-18T06:29:19.922Z,456.00
2023-04-18T06:30:19.800Z,444.00
2023-04-18T06:31:19.902Z,420.00
2023-04-18T06:32:19.790Z,444.00
2023-04-18T06:33:19.851Z,500.00
2023-04-18T06:34:19.754Z,600.00
2023-04-18T06:35:19.836Z,608.00
2023-04-18T06:36:19.759Z,616.00
2023-04-18T06:37:19.735Z,668.00
2023-04-18T06:38:19.763Z,796.00
2023-04-18T06:39:19.742Z,916.00
2023-04-18T06:40:19.708Z,868.00
2023-04-18T06:41:19.753Z,808.00
2023-04-18T06:42:22.377Z,792.00
2023-04-18T06:43:20.359Z,788.00
2023-04-18T06:44:19.630Z,752.00
2023-04-18T06:45:19.741Z,700.00
2023-04-18T06:46:19.672Z,716.00
2023-04-18T06:47:19.582Z,752.00
2023-04-18T06:48:19.618Z,700.00
2023-04-18T06:49:20.765Z,680.00
2023-04-18T06:50:19.567Z,760.00
2023-04-18T06:51:19.621Z,844.00
2023-04-18T06:52:19.578Z,952.00
2023-04-18T06:53:19.654Z,968.00
2023-04-18T06:54:19.504Z,856.00
2023-04-18T06:55:19.498Z,740.00
2023-04-18T06:56:19.474Z,760.00
2023-04-18T06:57:19.524Z,784.00
2023-04-18T06:58:19.589Z,728.00
2023-04-18T06:59:19.449Z,732.00
2023-04-18T07:00:19.514Z,780.00
2023-04-18T07:01:19.423Z,772.00
2023-04-18T07:02:19.666Z,720.00
2023-04-18T07:03:19.474Z,796.00
2023-04-18T07:04:19.789Z,804.00
2023-04-18T07:05:19.398Z,772.00
2023-04-18T07:06:19.357Z,916.00
2023-04-18T07:07:19.388Z,1024.00
2023-04-18T07:08:19.405Z,952.00
2023-04-18T07:09:19.419Z,1024.00
2023-04-18T07:10:19.425Z,1072.00
2023-04-18T07:11:19.436Z,1140.00
2023-04-18T07:12:19.290Z,1196.00
2023-04-18T07:13:19.452Z,1288.00
2023-04-18T07:14:19.256Z,1184.00
2023-04-18T07:15:19.270Z,1176.00
2023-04-18T07:16:19.286Z,1188.00
2023-04-18T07:17:19.371Z,1264.00
2023-04-18T07:18:30.173Z,1216.00
2023-04-18T07:19:19.198Z,1116.00
2023-04-18T07:20:19.208Z,956.00
2023-04-18T07:21:19.196Z,880.00
2023-04-18T07:22:19.193Z,832.00
2023-04-18T07:23:19.192Z,912.00
2023-04-18T07:24:19.130Z,956.00
2023-04-18T07:25:19.141Z,772.00
2023-04-18T07:26:19.152Z,860.00
2023-04-18T07:27:19.103Z,1004.00
2023-04-18T07:28:19.211Z,1128.00
2023-04-18T07:29:19.154Z,1160.00
2023-04-18T07:30:19.124Z,1332.00
2023-04-18T07:31:19.205Z,1300.00
2023-04-18T07:32:19.033Z,1416.00
2023-04-18T07:33:19.133Z,2400.00
2023-04-18T07:34:19.007Z,3280.00
2023-04-18T07:35:19.030Z,3120.00
2023-04-18T07:36:19.090Z,2360.00
2023-04-18T07:37:19.002Z,1720.00
2023-04-18T07:38:18.933Z,1600.00
2023-04-18T07:39:19.044Z,1700.00
2023-04-18T07:40:18.935Z,1576.00
2023-04-18T07:41:18.932Z,1532.00
2023-04-18T07:42:18.910Z,1572.00
2023-04-18T07:43:20.810Z,1320.00
2023-04-18T07:44:18.952Z,1284.00
2023-04-18T07:45:19.021Z,1100.00
2023-04-18T07:46:18.911Z,1184.00
2023-04-18T07:47:22.313Z,1228.00
2023-04-18T07:48:18.834Z,1332.00
2023-04-18T07:49:18.989Z,1344.00
2023-04-18T07:50:18.799Z,1312.00
2023-04-18T07:51:18.893Z,1124.00
2023-04-18T07:52:18.807Z,1092.00
2023-04-18T07:53:19.009Z,1084.00
2023-04-18T07:54:18.750Z,1124.00
2023-04-18T07:55:18.843Z,1272.00
2023-04-18T07:56:18.708Z,1104.00
2023-04-18T07:57:18.820Z,928.00
2023-04-18T07:58:18.746Z,960.00
2023-04-18T07:59:18.740Z,928.00
2023-04-18T08:00:18.798Z,836.00
2023-04-18T08:01:18.800Z,724.00
2023-04-18T08:02:18.716Z,676.00
2023-04-18T08:03:19.004Z,588.00
2023-04-18T08:04:18.711Z,608.00
2023-04-18T08:05:18.784Z,572.00
2023-04-18T08:06:18.604Z,536.00
2023-04-18T08:07:18.739Z,664.00
2023-04-18T08:08:18.638Z,648.00
2023-04-18T08:09:19.879Z,584.00
2023-04-18T08:10:21.359Z,556.00
2023-04-18T08:11:18.547Z,732.00
2023-04-18T08:12:18.542Z,756.00
2023-04-18T08:13:18.539Z,688.00
2023-04-18T08:14:18.584Z,744.00
2023-04-18T08:15:18.576Z,704.00
2023-04-18T08:16:18.472Z,668.00
2023-04-18T08:17:18.718Z,704.00
2023-04-18T08:18:18.468Z,656.00
2023-04-18T08:19:18.542Z,704.00
2023-04-18T08:20:18.482Z,720.00
2023-04-18T08:21:18.420Z,692.00
2023-04-18T08:22:18.487Z,728.00
2023-04-18T08:23:18.421Z,748.00
2023-04-18T08:24:18.452Z,800.00
2023-04-18T08:25:19.377Z,852.00
2023-04-18T08:26:18.422Z,764.00
2023-04-18T08:27:18.344Z,760.00
2023-04-18T08:28:18.347Z,808.00
2023-04-18T08:29:18.297Z,956.00
2023-04-18T08:30:18.483Z,1152.00
2023-04-18T08:31:18.352Z,1128.00
2023-04-18T08:32:18.415Z,1120.00
2023-04-18T08:33:18.286Z,996.00
2023-04-18T08:34:18.387Z,984.00
2023-04-18T08:35:18.233Z,1100.00
2023-04-18T08:36:18.374Z,1108.00
2023-04-18T08:37:18.265Z,984.00
2023-04-18T08:38:18.378Z,1120.00
2023-04-18T08:39:18.194Z,1436.00
2023-04-18T08:40:18.309Z,1656.00
2023-04-18T08:41:18.393Z,1616.00
2023-04-18T08:42:18.208Z,1440.00
2023-04-18T08:43:18.184Z,1524.00
2023-04-18T08:44:18.155Z,1488.00
2023-04-18T08:45:18.186Z,1548.00
2023-04-18T08:46:18.164Z,1580.00
2023-04-18T08:47:18.110Z,1488.00
2023-04-18T08:48:18.161Z,1548.00
2023-04-18T08:49:18.053Z,1676.00
2023-04-18T08:50:18.083Z,1792.00
2023-04-18T08:51:18.220Z,1892.00
2023-04-18T08:52:18.004Z,2060.00
2023-04-18T08:53:18.200Z,1936.00
2023-04-18T08:54:17.969Z,1908.00
2023-04-18T08:55:18.015Z,2344.00
2023-04-18T08:56:18.006Z,2260.00
2023-04-18T08:57:17.988Z,2532.00
2023-04-18T08:58:18.011Z,2540.00
2023-04-18T08:59:17.972Z,2264.00
2023-04-18T09:00:18.442Z,2352.00
2023-04-18T09:01:17.985Z,2300.00
2023-04-18T09:02:18.072Z,2304.00
2023-04-18T09:03:17.966Z,2232.00
2023-04-18T09:04:18.009Z,2436.00
2023-04-18T09:05:17.880Z,2512.00
2023-04-18T09:06:17.908Z,2144.00
2023-04-18T09:07:17.882Z,2088.00
2023-04-18T09:08:17.992Z,2120.00
2023-04-18T09:09:17.877Z,1820.00
2023-04-18T09:10:17.820Z,1824.00
2023-04-18T09:11:17.793Z,1772.00
2023-04-18T09:12:17.835Z,1776.00
2023-04-18T09:13:17.786Z,1916.00
2023-04-18T09:14:17.759Z,1988.00
2023-04-18T09:15:17.875Z,2096.00
2023-04-18T09:16:17.816Z,2296.00
2023-04-18T09:17:17.789Z,2768.00
2023-04-18T09:18:17.850Z,1996.00
2023-04-18T09:19:17.960Z,1976.00
2023-04-18T09:20:36.462Z,1996.00
2023-04-18T09:21:17.668Z,1880.00
2023-04-18T09:22:17.723Z,1904.00
2023-04-18T09:23:17.690Z,2144.00
2023-04-18T09:24:17.739Z,2168.00
2023-04-18T09:25:17.679Z,2164.00
2023-04-18T09:26:17.670Z,2284.00
2023-04-18T09:27:17.854Z,2076.00
2023-04-18T09:28:17.678Z,2408.00
2023-04-18T09:29:17.671Z,2164.00
2023-04-18T09:30:18.045Z,2180.00
2023-04-18T09:31:17.830Z,2464.00
2023-04-18T09:32:17.678Z,2764.00
2023-04-18T09:33:17.570Z,3312.00
2023-04-18T09:34:17.731Z,2676.00
2023-04-18T09:35:18.095Z,2488.00
2023-04-18T09:36:17.499Z,2520.00
2023-04-18T09:37:18.091Z,2492.00
2023-04-18T09:38:17.602Z,2744.00
2023-04-18T09:39:17.506Z,3692.00
2023-04-18T09:40:17.658Z,4808.00
2023-04-18T09:41:20.084Z,4372.00
2023-04-18T09:42:17.444Z,3692.00
2023-04-18T09:43:17.430Z,4004.00
2023-04-18T09:44:17.887Z,4748.00
2023-04-18T09:45:17.381Z,6100.00
2023-04-18T09:46:17.333Z,3284.00
2023-04-18T09:47:17.397Z,4232.00
2023-04-18T09:48:17.294Z,4588.00
2023-04-18T09:49:17.813Z,4868.00
2023-04-18T09:50:17.286Z,5524.00
2023-04-18T09:51:17.602Z,5476.00
2023-04-18T09:52:17.270Z,5376.00
2023-04-18T09:53:19.463Z,3780.00
2023-04-18T09:54:17.212Z,6728.00
2023-04-18T09:55:17.433Z,5296.00
2023-04-18T09:56:17.210Z,7060.00
2023-04-18T09:57:17.247Z,4536.00
2023-04-18T09:58:17.239Z,5144.00
2023-04-18T09:59:18.593Z,4684.00
2023-04-18T10:00:17.284Z,4988.00
2023-04-18T10:01:17.198Z,4656.00
2023-04-18T10:02:17.211Z,6300.00
2023-04-18T10:03:17.342Z,5400.00
2023-04-18T10:04:17.440Z,6184.00
2023-04-18T10:05:18.889Z,8080.00
2023-04-18T10:06:17.068Z,3956.00
2023-04-18T10:07:17.094Z,3876.00
2023-04-18T10:08:17.060Z,4664.00
2023-04-18T10:09:17.143Z,8136.00
2023-04-18T10:10:17.060Z,7076.00
2023-04-18T10:11:18.675Z,6912.00
2023-04-18T10:12:17.060Z,4476.00
2023-04-18T10:13:17.119Z,6116.00
2023-04-18T10:14:17.237Z,7452.00
2023-04-18T10:15:17.061Z,7408.00
2023-04-18T10:16:17.033Z,8408.00
2023-04-18T10:17:17.071Z,11432.00
2023-04-18T10:18:16.995Z,6932.00
2023-04-18T10:19:17.002Z,3720.00
2023-04-18T10:20:16.881Z,7560.00
2023-04-18T10:21:16.996Z,5224.00
2023-04-18T10:22:16.872Z,5760.00
2023-04-18T10:23:16.954Z,3396.00
2023-04-18T10:24:16.943Z,5948.00
2023-04-18T10:25:16.835Z,9840.00
2023-04-18T10:26:16.926Z,8944.00
2023-04-18T10:27:16.814Z,8252.00
2023-04-18T10:28:16.964Z,6840.00
2023-04-18T10:29:16.774Z,6580.00
2023-04-18T10:31:12.456Z,5976.00
2023-04-18T10:32:13.350Z,10940.00
2023-04-18T10:33:25.794Z,8100.00
2023-04-18T10:34:13.405Z,6440.00
2023-04-18T10:35:13.325Z,5252.00
2023-04-18T10:36:13.441Z,3868.00
2023-04-18T10:37:13.293Z,5220.00
2023-04-18T10:38:13.334Z,5216.00
2023-04-18T10:39:13.241Z,10500.00
2023-04-18T10:40:13.350Z,8696.00
2023-04-18T10:41:13.211Z,8824.00
2023-04-18T10:42:13.257Z,8744.00
2023-04-18T10:43:13.191Z,8468.00
2023-04-18T10:44:13.466Z,4152.00
2023-04-18T10:45:13.175Z,4544.00
2023-04-18T10:46:24.209Z,5416.00
2023-04-18T10:47:13.128Z,4564.00
2023-04-18T10:48:13.289Z,4380.00
2023-04-18T10:49:13.440Z,4448.00
2023-04-18T10:50:13.382Z,4952.00
2023-04-18T10:51:13.075Z,3648.00
2023-04-18T10:52:13.462Z,5224.00
2023-04-18T10:53:13.045Z,3248.00
2023-04-18T10:54:13.381Z,4468.00
2023-04-18T10:55:13.138Z,4176.00
2023-04-18T10:56:13.013Z,2368.00
2023-04-18T10:57:13.366Z,4416.00
2023-04-18T10:58:13.106Z,3100.00
2023-04-18T10:59:13.076Z,2460.00
2023-04-18T11:00:13.157Z,2876.00
2023-04-18T11:01:13.038Z,2208.00
2023-04-18T11:02:13.080Z,1996.00
2023-04-18T11:03:13.052Z,3048.00
2023-04-18T11:04:13.351Z,2388.00
2023-04-18T11:05:13.041Z,2668.00
2023-04-18T11:06:12.903Z,2524.00
2023-04-18T11:07:13.020Z,2836.00
2023-04-18T11:08:12.932Z,2348.00
2023-04-18T11:09:12.978Z,2100.00
2023-04-18T11:10:12.948Z,2036.00
2023-04-18T11:11:12.816Z,2276.00
2023-04-18T11:12:12.907Z,2608.00
2023-04-18T11:13:12.797Z,2344.00
2023-04-18T11:14:13.119Z,2340.00
2023-04-18T11:15:12.803Z,5372.00
2023-04-18T11:16:13.068Z,4092.00
2023-04-18T11:17:12.763Z,4048.00
2023-04-18T11:18:12.978Z,6420.00
2023-04-18T11:19:12.705Z,6052.00
2023-04-18T11:20:12.935Z,4508.00
2023-04-18T11:21:12.718Z,3932.00
2023-04-18T11:22:12.817Z,4424.00
2023-04-18T11:23:12.692Z,3608.00
2023-04-18T11:24:13.101Z,2776.00
2023-04-18T11:25:12.699Z,2596.00
2023-04-18T11:26:12.918Z,2564.00
2023-04-18T11:27:12.620Z,2740.00
2023-04-18T11:28:12.706Z,3528.00
2023-04-18T11:29:12.595Z,3396.00
2023-04-18T11:30:12.689Z,3304.00
2023-04-18T11:31:12.591Z,2936.00
2023-04-18T11:32:12.744Z,2128.00
2023-04-18T11:33:12.646Z,2060.00
2023-04-18T11:34:12.998Z,2000.00
2023-04-18T11:35:12.526Z,2588.00
2023-04-18T11:36:12.719Z,2564.00
2023-04-18T11:37:12.486Z,2392.00
2023-04-18T11:38:12.641Z,2116.00
2023-04-18T11:39:12.532Z,2052.00
2023-04-18T11:40:12.574Z,2220.00
2023-04-18T11:41:12.806Z,3596.00
2023-04-18T11:42:12.529Z,4220.00
2023-04-18T11:43:12.574Z,3484.00
2023-04-18T11:44:12.729Z,3496.00
2023-04-18T11:45:12.481Z,3628.00
2023-04-18T11:46:12.455Z,4156.00
2023-04-18T11:47:12.526Z,3596.00
2023-04-18T11:48:12.360Z,3084.00
2023-04-18T11:49:12.516Z,4360.00
2023-04-18T11:50:12.467Z,3672.00
2023-04-18T11:51:12.602Z,3032.00
2023-04-18T11:52:12.583Z,2504.00
2023-04-18T11:53:12.313Z,2488.00
2023-04-18T11:54:12.647Z,2880.00
2023-04-18T11:55:12.323Z,3900.00
2023-04-18T11:56:12.361Z,5136.00
2023-04-18T11:57:12.306Z,4252.00
2023-04-18T11:58:12.489Z,4320.00
2023-04-18T11:59:12.206Z,5164.00
2023-04-18T12:00:12.281Z,4340.00
2023-04-18T12:01:12.186Z,5372.00
2023-04-18T12:02:16.672Z,5412.00
2023-04-18T12:03:13.977Z,6908.00
2023-04-18T12:04:12.597Z,8024.00
2023-04-18T12:05:12.655Z,7436.00
2023-04-18T12:06:12.381Z,6184.00
2023-04-18T12:07:12.628Z,5176.00
2023-04-18T12:08:12.326Z,5168.00
2023-04-18T12:09:12.126Z,4700.00
2023-04-18T12:10:12.178Z,4520.00
2023-04-18T12:11:12.114Z,4188.00
2023-04-18T12:12:12.146Z,4992.00
2023-04-18T12:13:12.235Z,4408.00
2023-04-18T12:14:12.280Z,3916.00
2023-04-18T12:15:12.079Z,5016.00
2023-04-18T12:16:12.003Z,4100.00
2023-04-18T12:17:12.212Z,3536.00
2023-04-18T12:18:12.167Z,3548.00
2023-04-18T12:19:12.034Z,3304.00
2023-04-18T12:20:13.003Z,2656.00
2023-04-18T12:21:11.993Z,2636.00
2023-04-18T12:22:12.055Z,2776.00
2023-04-18T12:23:12.030Z,3208.00
2023-04-18T12:24:12.380Z,3588.00
2023-04-18T12:25:11.954Z,3920.00
2023-04-18T12:26:11.928Z,4048.00
2023-04-18T12:27:11.892Z,4352.00
2023-04-18T12:28:11.957Z,3796.00
2023-04-18T12:29:12.071Z,3648.00
2023-04-18T12:30:12.041Z,4044.00
2023-04-18T12:31:12.715Z,4052.00
2023-04-18T12:32:12.104Z,3740.00
2023-04-18T12:33:11.827Z,3256.00
2023-04-18T12:34:12.094Z,3376.00
2023-04-18T12:35:11.812Z,4196.00
2023-04-18T12:36:11.898Z,4184.00
2023-04-18T12:37:11.779Z,3432.00
2023-04-18T12:38:11.811Z,3680.00